EPPO/POZ METAR and TAF weather

Enter ICAO airport designator
Station Type Date Time Source
EPPO METAR 2018/12/13 00:00 UTC NOAA

EPPO 130000Z 34002KT 3600 BR OVC003 01/01 Q1024


Station Type Date Time Source
EPPO Decoded METAR 2018/12/13 00:00 UTC NOAA

Poznan, Poland (EPPO) 52-25N 016-50E 92M
Dec 12, 2018 - 07:00 PM EST / 2018.12.13 0000 UTC
Wind: from the NNW (340 degrees) at 2 MPH (2 KT):0
Visibility: 2 mile(s):0
Sky conditions: overcast
Weather: mist
Temperature: 33 F (1 C)
Dew Point: 33 F (1 C)
Relative Humidity: 100%
Pressure (altimeter): 30.24 in. Hg (1024 hPa)
ob: EPPO 130000Z 34002KT 3600 BR OVC003 01/01 Q1024
cycle: 0

Station Type Date Time Source
EPPO TAF 2018/12/12 18:34 UTC NOAA

TAF EPPO 121730Z 1218/1318 03006KT 8000 BKN020 PROB40 1218/1318 2800 -SN BR BKN006 OVC020


Example: see airport list